Time;durP1;ratioP1;P1;durP2;ratioP2;P2;SDS_P1;SDS_P2;PMS_P1;PMS_P2;Temp;Humidity;BMP_temperature;BMP_pressure;BME280_temperature;BME280_humidity;BME280_pressure;Samples;Min_cycle;Max_cycle;Signal;HPM_P1;HPM_P2
2023/12/18 00:00:36;;;;;;;31.20;19.27;;;;;;;4.21;62.68;101760.66;4452656;32;20148;-78
2023/12/18 00:03:07;;;;;;;27.62;18.37;;;;;;;4.07;63.04;101763.44;4452834;32;20211;-78
2023/12/18 00:05:37;;;;;;;26.08;19.12;;;;;;;4.13;63.16;101753.75;4453014;32;20156;-78
2023/12/18 00:08:08;;;;;;;27.17;18.50;;;;;;;4.49;61.84;101756.75;4453124;32;20136;-78
2023/12/18 00:10:37;;;;;;;29.87;18.45;;;;;;;4.37;61.85;101756.91;4452647;32;20463;-78
2023/12/18 00:13:07;;;;;;;26.75;19.77;;;;;;;4.42;61.49;101758.56;4452708;32;20163;-78
2023/12/18 00:15:39;;;;;;;29.33;19.52;;;;;;;4.02;63.07;101767.88;4452448;32;20778;-78
2023/12/18 00:18:10;;;;;;;27.48;18.40;;;;;;;3.85;63.90;101763.69;4452853;32;20157;-78
2023/12/18 00:20:40;;;;;;;20.73;16.05;;;;;;;3.74;64.24;101764.72;4453095;32;20152;-78
2023/12/18 00:23:09;;;;;;;21.50;15.98;;;;;;;3.59;64.31;101765.75;4452881;32;20245;-78
2023/12/18 00:25:39;;;;;;;26.67;17.42;;;;;;;3.87;63.54;101768.91;4452740;32;20180;-78
2023/12/18 00:28:08;;;;;;;24.05;18.50;;;;;;;4.23;62.04;101764.09;4453151;32;20198;-78
2023/12/18 00:30:39;;;;;;;27.52;17.92;;;;;;;4.41;61.23;101756.00;4452524;32;20167;-78
2023/12/18 00:33:09;;;;;;;26.15;18.87;;;;;;;4.10;62.40;101766.03;4438548;32;20518;-78
2023/12/18 00:35:40;;;;;;;28.58;17.67;;;;;;;3.66;63.97;101768.28;4452932;32;20180;-78
2023/12/18 00:38:09;;;;;;;28.02;17.83;;;;;;;3.83;63.77;101765.47;4452766;32;20517;-78
2023/12/18 00:40:40;;;;;;;32.00;18.33;;;;;;;3.91;63.14;101768.84;4452616;32;20163;-78
2023/12/18 00:43:09;;;;;;;30.85;19.95;;;;;;;3.82;63.79;101760.25;4452727;32;20151;-78
2023/12/18 00:45:40;;;;;;;25.95;18.05;;;;;;;4.03;63.08;101748.63;4452477;32;20148;-78
2023/12/18 00:48:10;;;;;;;23.05;17.73;;;;;;;3.90;63.30;101751.41;4452686;32;20155;-78
2023/12/18 00:50:40;;;;;;;26.17;20.15;;;;;;;3.85;63.71;101754.97;4452993;32;20514;-78
2023/12/18 00:53:10;;;;;;;26.87;18.73;;;;;;;3.79;63.97;101747.16;4452478;32;20147;-78
2023/12/18 00:55:39;;;;;;;24.87;19.55;;;;;;;3.83;63.86;101749.72;4437979;32;20155;-78
2023/12/18 00:58:08;;;;;;;26.37;18.02;;;;;;;3.77;63.95;101741.94;4452572;32;20152;-78
2023/12/18 01:00:41;;;;;;;23.17;17.27;;;;;;;3.76;63.55;101741.94;4452629;32;20163;-78
2023/12/18 01:03:11;;;;;;;26.27;17.87;;;;;;;3.91;62.57;101742.63;4452605;32;20179;-78
2023/12/18 01:05:41;;;;;;;26.98;17.12;;;;;;;3.50;63.48;101745.75;4452491;32;20177;-78
2023/12/18 01:08:13;;;;;;;20.85;15.45;;;;;;;3.45;63.83;101744.94;4452402;32;20156;-78
2023/12/18 01:10:43;;;;;;;24.12;16.12;;;;;;;3.29;64.39;101751.22;4437736;32;20552;-78
2023/12/18 01:13:12;;;;;;;22.90;15.73;;;;;;;3.42;64.22;101742.34;4452612;32;20172;-78
2023/12/18 01:15:45;;;;;;;23.92;15.60;;;;;;;3.60;63.65;101736.00;4452289;32;20151;-78
2023/12/18 01:18:15;;;;;;;27.73;16.50;;;;;;;3.67;63.17;101742.94;4452539;32;20153;-78
2023/12/18 01:20:45;;;;;;;20.33;14.90;;;;;;;3.79;62.63;101740.16;4453007;32;20275;-78
2023/12/18 01:23:14;;;;;;;20.35;15.60;;;;;;;3.71;62.91;101747.25;4452155;32;20200;-78
2023/12/18 01:25:44;;;;;;;23.08;15.43;;;;;;;3.58;63.37;101741.28;4452690;32;20164;-78
2023/12/18 01:28:13;;;;;;;19.95;14.95;;;;;;;3.23;64.46;101749.50;4452828;32;20155;-78
2023/12/18 01:30:45;;;;;;;19.83;13.45;;;;;;;2.82;66.06;101757.72;4452295;32;20536;-78
2023/12/18 01:33:16;;;;;;;22.65;15.43;;;;;;;3.14;64.79;101749.59;4452634;32;20515;-78
2023/12/18 01:35:45;;;;;;;21.25;14.98;;;;;;;3.17;64.82;101753.06;4452630;32;20148;-78
2023/12/18 01:38:20;;;;;;;20.60;16.08;;;;;;;3.12;65.10;101739.13;4453121;32;20159;-78
2023/12/18 01:40:50;;;;;;;22.25;14.95;;;;;;;3.01;65.50;101733.12;4452293;32;20168;-78
2023/12/18 01:43:26;;;;;;;21.35;16.77;;;;;;;2.96;65.84;101737.53;4452446;32;20160;-78
2023/12/18 01:46:06;;;;;;;21.95;17.00;;;;;;;2.85;66.15;101742.88;4452403;32;20191;-78
2023/12/18 01:48:37;;;;;;;24.30;17.42;;;;;;;2.94;65.97;101728.81;4452438;32;20479;-78
2023/12/18 01:51:07;;;;;;;23.80;17.87;;;;;;;3.19;65.34;101722.47;4452435;32;20156;-78
2023/12/18 01:53:42;;;;;;;26.67;17.92;;;;;;;3.42;64.59;101729.22;4452899;32;20139;-78
2023/12/18 01:56:21;;;;;;;26.00;17.98;;;;;;;3.43;64.16;101723.97;4451877;32;20175;-78
2023/12/18 01:58:51;;;;;;;27.60;18.35;;;;;;;3.51;64.09;101726.50;4452385;32;20167;-78
2023/12/18 02:01:21;;;;;;;28.40;18.80;;;;;;;3.43;64.46;101720.47;4452411;32;20282;-78
2023/12/18 02:03:53;;;;;;;28.20;17.42;;;;;;;3.65;64.04;101715.88;4452219;32;20167;-78
2023/12/18 02:06:26;;;;;;;22.87;18.20;;;;;;;3.82;63.38;101711.28;4452067;32;20168;-78
2023/12/18 02:08:57;;;;;;;23.15;14.73;;;;;;;3.87;63.12;101714.72;4446382;32;20179;-78
2023/12/18 02:11:26;;;;;;;27.00;17.23;;;;;;;3.65;63.73;101713.25;4452465;32;20218;-78
2023/12/18 02:13:59;;;;;;;21.37;17.15;;;;;;;3.44;64.47;101717.87;4452292;32;20164;-78
2023/12/18 02:16:34;;;;;;;26.98;19.50;;;;;;;3.49;64.49;101716.94;4451773;32;20148;-78
2023/12/18 02:19:05;;;;;;;23.95;16.17;;;;;;;3.62;64.25;101708.03;4450722;32;20148;-78
2023/12/18 02:21:34;;;;;;;23.67;17.85;;;;;;;3.72;63.78;101714.03;4452289;32;20520;-78
2023/12/18 02:24:05;;;;;;;29.33;17.40;;;;;;;3.74;63.72;101712.28;4451997;32;20519;-78
2023/12/18 02:26:35;;;;;;;24.65;17.67;;;;;;;3.93;62.99;101706.78;4452702;32;20151;-78
2023/12/18 02:29:10;;;;;;;25.35;16.95;;;;;;;3.84;63.15;101701.66;4452263;32;20160;-78
2023/12/18 02:31:40;;;;;;;25.05;18.50;;;;;;;3.60;63.80;101704.56;4452151;32;20773;-79
2023/12/18 02:34:10;;;;;;;22.30;16.37;;;;;;;3.81;63.39;101706.94;4452290;32;20151;-79
2023/12/18 02:36:39;;;;;;;25.37;16.80;;;;;;;3.84;63.23;101698.16;4451991;32;20148;-79
2023/12/18 02:39:10;;;;;;;23.80;16.73;;;;;;;3.67;63.76;101695.75;4451794;32;20175;-77
2023/12/18 02:41:39;;;;;;;22.58;17.20;;;;;;;3.62;63.87;101695.81;4452053;32;20143;-77
2023/12/18 02:44:08;;;;;;;27.00;20.33;;;;;;;3.58;64.05;101691.47;4451699;32;20172;-76
2023/12/18 02:46:37;;;;;;;30.27;21.80;;;;;;;3.66;63.78;101684.41;4437335;32;20180;-76
2023/12/18 02:49:06;;;;;;;26.05;19.55;;;;;;;3.81;62.73;101682.47;4451574;32;20175;-77
2023/12/18 02:51:36;;;;;;;32.47;20.52;;;;;;;3.43;64.03;101683.78;4451901;32;20159;-78
2023/12/18 02:54:05;;;;;;;29.50;19.42;;;;;;;3.56;63.84;101693.25;4451604;32;20211;-78
2023/12/18 02:56:36;;;;;;;33.30;19.83;;;;;;;3.44;64.27;101693.38;4451682;32;20184;-78
2023/12/18 02:59:05;;;;;;;27.77;18.62;;;;;;;3.48;64.24;101689.84;4451595;32;20163;-79
2023/12/18 03:01:35;;;;;;;25.42;19.10;;;;;;;3.26;64.80;101698.84;4437227;32;20178;-79
2023/12/18 03:04:05;;;;;;;25.60;18.60;;;;;;;3.51;64.30;101700.28;4451568;32;20152;-79
2023/12/18 03:06:34;;;;;;;25.05;18.02;;;;;;;3.57;64.21;101696.75;4451362;32;20137;-79
2023/12/18 03:09:04;;;;;;;25.90;17.58;;;;;;;3.26;65.22;101694.47;4451790;32;20152;-79
2023/12/18 03:11:33;;;;;;;27.15;19.05;;;;;;;3.65;64.03;101697.53;4451635;32;20167;-79
2023/12/18 03:14:03;;;;;;;29.92;18.58;;;;;;;3.56;64.41;101698.47;4451631;32;20175;-79
2023/12/18 03:16:33;;;;;;;27.85;18.45;;;;;;;3.74;63.97;101704.41;4450938;32;20171;-79
2023/12/18 03:19:03;;;;;;;24.98;19.10;;;;;;;3.85;63.16;101699.91;4451002;32;20156;-79
2023/12/18 03:21:32;;;;;;;25.73;19.08;;;;;;;3.79;63.35;101694.72;4451207;32;20424;-79
2023/12/18 03:24:02;;;;;;;33.92;20.42;;;;;;;3.60;63.91;101692.34;4451239;32;20539;-79
2023/12/18 03:26:30;;;;;;;29.15;19.45;;;;;;;3.65;63.80;101697.53;4451601;32;20172;-79
2023/12/18 03:28:59;;;;;;;26.92;19.20;;;;;;;3.76;63.54;101693.03;4451627;32;20143;-79
2023/12/18 03:31:33;;;;;;;23.73;18.15;;;;;;;3.65;63.69;101690.53;4453107;32;20192;-79
2023/12/18 03:34:02;;;;;;;30.12;19.55;;;;;;;3.67;63.62;101693.12;4453019;32;20168;-79
2023/12/18 03:36:31;;;;;;;24.08;18.40;;;;;;;3.55;63.91;101696.75;4452884;32;20732;-79
2023/12/18 03:39:00;;;;;;;29.83;18.85;;;;;;;3.62;63.77;101702.81;4452729;32;20171;-79
2023/12/18 03:41:29;;;;;;;29.50;19.10;;;;;;;3.44;64.05;101702.13;4453138;32;20512;-79
2023/12/18 03:43:59;;;;;;;27.75;19.27;;;;;;;3.59;63.32;101694.97;4452988;32;20465;-79
2023/12/18 03:46:32;;;;;;;29.23;20.02;;;;;;;3.69;62.70;101691.37;4452721;32;20168;-79
2023/12/18 03:49:03;;;;;;;25.75;18.35;;;;;;;3.36;63.53;101692.59;4452845;32;20610;-79
2023/12/18 03:51:33;;;;;;;22.90;17.85;;;;;;;3.17;64.13;101686.72;4452540;32;20167;-79
2023/12/18 03:54:02;;;;;;;26.62;18.98;;;;;;;3.59;63.07;101684.47;4426256;32;20168;-79
2023/12/18 03:56:31;;;;;;;25.45;18.67;;;;;;;3.50;62.86;101684.59;4437284;32;20148;-79
2023/12/18 03:59:00;;;;;;;25.58;18.52;;;;;;;3.44;63.14;101672.41;4437137;32;20144;-79
2023/12/18 04:01:34;;;;;;;26.45;18.20;;;;;;;3.49;62.91;101665.41;4437147;32;20182;-79
2023/12/18 04:04:05;;;;;;;26.08;17.00;;;;;;;3.21;63.67;101670.06;4436930;32;20151;-79
2023/12/18 04:06:35;;;;;;;23.42;18.15;;;;;;;3.24;63.81;101674.41;4437076;32;20156;-79
2023/12/18 04:09:04;;;;;;;26.50;20.50;;;;;;;3.14;63.99;101671.03;4436990;32;20144;-79
2023/12/18 04:11:33;;;;;;;22.87;17.65;;;;;;;3.21;63.80;101675.31;4437564;32;20156;-79
2023/12/18 04:14:05;;;;;;;25.00;16.08;;;;;;;3.27;63.51;101683.09;4436998;32;20180;-79
2023/12/18 04:16:36;;;;;;;22.13;16.50;;;;;;;3.29;63.29;101678.72;4436732;32;20159;-79
2023/12/18 04:19:06;;;;;;;23.98;16.17;;;;;;;3.13;63.69;101680.63;4437023;32;20175;-80
2023/12/18 04:21:36;;;;;;;21.87;16.85;;;;;;;3.10;63.73;101679.78;4436925;32;20784;-79
2023/12/18 04:24:06;;;;;;;21.45;16.42;;;;;;;3.19;63.27;101674.44;4437051;32;20320;-79
2023/12/18 04:26:35;;;;;;;23.35;15.20;;;;;;;3.20;63.04;101673.56;4437373;32;20156;-79
2023/12/18 04:29:04;;;;;;;21.60;15.85;;;;;;;3.16;63.10;101677.97;4437196;32;20140;-80
2023/12/18 04:31:39;;;;;;;22.87;16.02;;;;;;;3.25;62.86;101666.53;4437008;32;20159;-80
2023/12/18 04:34:09;;;;;;;28.58;19.83;;;;;;;3.43;62.23;101671.56;4437133;32;20156;-80
2023/12/18 04:36:41;;;;;;;30.83;20.58;;;;;;;3.14;63.05;101661.41;4422722;32;20161;-80
2023/12/18 04:39:11;;;;;;;32.80;19.85;;;;;;;3.06;63.56;101668.47;4437023;32;20165;-80
2023/12/18 04:41:40;;;;;;;25.23;18.75;;;;;;;2.96;63.77;101659.81;4436694;32;20156;-80
2023/12/18 04:44:10;;;;;;;26.60;18.00;;;;;;;3.09;63.38;101673.69;4436959;32;20619;-80
2023/12/18 04:46:42;;;;;;;25.90;17.90;;;;;;;3.02;63.40;101668.53;4436951;32;20179;-80
2023/12/18 04:49:16;;;;;;;24.77;16.52;;;;;;;3.03;63.36;101673.75;4437241;32;20163;-80
2023/12/18 04:51:45;;;;;;;28.25;16.45;;;;;;;3.04;63.27;101666.75;4437172;32;20432;-80
2023/12/18 04:54:15;;;;;;;24.42;17.08;;;;;;;3.05;63.26;101669.38;4437074;32;20183;-80
2023/12/18 04:56:44;;;;;;;24.45;16.70;;;;;;;3.01;63.35;101667.66;4437629;32;20156;-80
2023/12/18 05:01:50;;;;;;;23.65;16.95;;;;;;;3.00;63.26;101665.91;4437326;32;20140;-80
2023/12/18 05:04:20;;;;;;;22.62;17.45;;;;;;;2.89;63.57;101678.22;4437126;32;20448;-80
2023/12/18 05:06:50;;;;;;;29.52;19.95;;;;;;;2.99;63.24;101673.78;4436990;32;20172;-80
2023/12/18 05:09:19;;;;;;;35.78;21.67;;;;;;;2.98;62.97;101672.06;4423234;32;20155;-80
2023/12/18 05:11:49;;;;;;;28.55;20.23;;;;;;;2.88;63.34;101669.50;4437149;32;20179;-80
2023/12/18 05:14:18;;;;;;;31.17;21.85;;;;;;;2.94;63.13;101669.47;4437706;32;20157;-80
2023/12/18 05:16:50;;;;;;;30.98;22.20;;;;;;;2.97;63.07;101668.56;4437405;32;20160;-80
2023/12/18 05:19:21;;;;;;;;;;;;;;;2.90;63.33;101682.59;4437432;32;20467;-80
2023/12/18 05:21:50;;;;;;;31.17;18.45;;;;;;;3.30;61.83;101669.09;4437137;32;20048;-80
2023/12/18 05:24:20;;;;;;;26.52;18.55;;;;;;;2.99;62.57;101664.19;4449404;32;20136;-80
2023/12/18 05:26:49;;;;;;;28.85;20.40;;;;;;;3.03;62.71;101668.50;4452532;32;20156;-80
2023/12/18 05:29:18;;;;;;;27.30;18.60;;;;;;;2.83;63.38;101666.06;4453076;32;20175;-80
2023/12/18 05:31:47;;;;;;;26.02;18.05;;;;;;;2.83;63.54;101667.81;4453598;32;20176;-80
2023/12/18 05:34:20;;;;;;;25.98;17.33;;;;;;;2.92;63.27;101670.34;4452555;32;20231;-80
2023/12/18 05:36:50;;;;;;;24.73;17.67;;;;;;;3.07;62.68;101657.09;4452671;32;20168;-80
2023/12/18 05:39:21;;;;;;;20.55;16.35;;;;;;;2.90;62.98;101665.13;4452334;32;20148;-80
2023/12/18 05:41:50;;;;;;;28.15;17.00;;;;;;;2.71;63.56;101669.66;4452669;32;20175;-80
2023/12/18 05:44:19;;;;;;;25.58;19.20;;;;;;;2.67;63.82;101672.31;4453348;32;20151;-80
2023/12/18 05:46:48;;;;;;;27.55;22.48;;;;;;;2.60;64.00;101681.09;4452665;32;20168;-80
2023/12/18 05:49:27;;;;;;;27.10;19.85;;;;;;;2.56;64.08;101674.16;4452570;32;20184;-80
2023/12/18 05:51:56;;;;;;;;;;;;;;;2.65;63.93;101676.69;4453019;32;20144;-80
2023/12/18 05:54:25;;;;;;;25.70;17.48;;;;;;;2.64;63.99;101673.22;4440575;32;20043;-80
2023/12/18 05:56:59;;;;;;;19.17;14.20;;;;;;;2.76;63.43;101676.59;4437649;32;20160;-80
2023/12/18 05:59:29;;;;;;;27.85;18.58;;;;;;;2.77;63.18;101670.47;4438116;32;20148;-79
2023/12/18 06:02:00;;;;;;;31.05;22.75;;;;;;;2.65;63.41;101680.22;4423358;32;20453;-79
2023/12/18 06:04:33;;;;;;;29.60;21.30;;;;;;;2.72;63.26;101678.38;4437149;32;20176;-80
2023/12/18 06:07:06;;;;;;;28.95;19.25;;;;;;;2.66;63.47;101681.94;4437140;32;20267;-80
2023/12/18 06:09:35;;;;;;;24.37;17.10;;;;;;;2.81;63.09;101685.28;4437151;32;20160;-80
2023/12/18 06:12:05;;;;;;;28.35;21.08;;;;;;;2.86;62.86;101680.91;4437440;32;20144;-80
2023/12/18 06:14:35;;;;;;;25.33;19.27;;;;;;;2.81;62.89;101683.56;4437295;32;20755;-80
2023/12/18 06:17:07;;;;;;;30.10;19.15;;;;;;;2.53;63.75;101679.41;4437923;32;20637;-80
2023/12/18 06:19:40;;;;;;;25.45;19.02;;;;;;;2.65;63.50;101674.06;4438329;32;20199;-81
2023/12/18 06:22:11;;;;;;;27.25;20.60;;;;;;;2.63;63.43;101681.94;4424044;32;20148;-80
2023/12/18 06:24:41;;;;;;;26.85;19.27;;;;;;;2.70;63.25;101678.41;4436852;32;20176;-80
2023/12/18 06:27:10;;;;;;;28.33;18.73;;;;;;;2.63;63.57;101686.31;4437105;32;20155;-80
2023/12/18 06:29:41;;;;;;;28.27;18.95;;;;;;;2.61;63.61;101681.09;4437842;32;20148;-80
2023/12/18 06:32:15;;;;;;;19.62;15.93;;;;;;;2.52;63.94;101694.25;4437862;32;20587;-80
2023/12/18 06:34:46;;;;;;;22.48;17.00;;;;;;;2.52;64.04;101690.75;4437264;32;20496;-80
2023/12/18 06:37:15;;;;;;;27.10;18.85;;;;;;;2.81;63.11;101690.53;4423306;32;20203;-80
2023/12/18 06:39:46;;;;;;;25.37;18.23;;;;;;;2.59;63.47;101689.84;4437053;32;20184;-80
2023/12/18 06:42:16;;;;;;;24.80;20.77;;;;;;;2.50;63.66;101693.41;4437202;32;20164;-80
2023/12/18 06:44:45;;;;;;;25.30;18.45;;;;;;;2.80;62.85;101692.28;4437549;32;20152;-80
2023/12/18 06:47:14;;;;;;;33.38;26.80;;;;;;;2.75;63.73;101699.31;4436921;32;20445;-80
2023/12/18 06:49:43;;;;;;;36.08;29.65;;;;;;;3.19;63.59;101692.78;4437117;32;20183;-80
2023/12/18 06:52:15;;;;;;;24.60;20.58;;;;;;;3.31;63.21;101690.03;4437526;32;20172;-80
2023/12/18 06:54:48;;;;;;;23.12;17.85;;;;;;;3.44;62.42;101688.13;4437532;32;20156;-80
2023/12/18 06:57:17;;;;;;;20.10;14.65;;;;;;;3.49;61.83;101690.75;4438789;32;20525;-80
2023/12/18 06:59:46;;;;;;;21.95;16.42;;;;;;;3.44;61.46;101689.03;4435930;32;20155;-78
2023/12/18 07:02:19;;;;;;;20.48;18.02;;;;;;;3.35;61.72;101690.87;4435979;32;20180;-79
2023/12/18 07:04:48;;;;;;;26.67;17.37;;;;;;;3.16;62.26;101698.91;4435205;32;20171;-79
2023/12/18 07:07:19;;;;;;;26.35;18.67;;;;;;;3.19;62.35;101701.50;4421455;32;20164;-79
2023/12/18 07:09:48;;;;;;;26.10;18.20;;;;;;;3.19;62.37;101704.13;4435525;32;20439;-80
2023/12/18 07:12:17;;;;;;;28.08;20.02;;;;;;;3.18;62.50;101701.53;4437394;32;20152;-79
2023/12/18 07:14:47;;;;;;;31.83;20.67;;;;;;;3.27;62.10;101701.44;4437559;32;20536;-80
2023/12/18 07:17:20;;;;;;;29.08;20.62;;;;;;;3.28;62.32;101697.06;4438118;32;20182;-80
2023/12/18 07:19:49;;;;;;;;;;;;;;;3.18;62.79;101702.41;4437958;32;20436;-80
2023/12/18 07:22:20;;;;;;;35.40;23.58;;;;;;;3.09;63.04;101698.97;4436718;32;20047;-79
2023/12/18 07:24:49;;;;;;;34.05;24.42;;;;;;;3.17;62.87;101705.03;4436492;32;20168;-80
2023/12/18 07:27:18;;;;;;;40.53;28.45;;;;;;;3.29;62.62;101707.53;4436583;32;20174;-80
2023/12/18 07:29:48;;;;;;;31.62;23.83;;;;;;;3.36;62.59;101705.69;4437383;32;20148;-80
2023/12/18 07:32:20;;;;;;;37.20;24.73;;;;;;;3.27;62.90;101711.03;4437347;32;20160;-80
2023/12/18 07:34:49;;;;;;;27.90;22.70;;;;;;;3.42;62.56;101711.75;4436590;32;20168;-80
2023/12/18 07:37:20;;;;;;;33.78;23.75;;;;;;;3.48;62.45;101707.31;4436566;32;20140;-80
2023/12/18 07:39:49;;;;;;;33.70;24.12;;;;;;;3.49;62.47;101702.09;4436988;32;20438;-80
2023/12/18 07:42:19;;;;;;;31.42;22.80;;;;;;;3.57;62.49;101705.47;4437372;32;20160;-79
2023/12/18 07:44:48;;;;;;;29.27;23.77;;;;;;;3.58;62.79;101701.97;4437381;32;20180;-79
2023/12/18 07:47:17;;;;;;;36.95;22.75;;;;;;;3.89;62.66;101706.84;4437350;32;20184;-79
2023/12/18 07:49:49;;;;;;;34.95;23.60;;;;;;;4.33;62.36;101700.97;4437193;32;20159;-80
2023/12/18 07:52:21;;;;;;;27.87;21.67;;;;;;;5.08;60.74;101697.13;4436185;32;20172;-80
2023/12/18 07:54:50;;;;;;;29.75;22.15;;;;;;;5.11;59.13;101697.09;4436020;32;20172;-80
2023/12/18 07:57:20;;;;;;;32.22;22.15;;;;;;;5.90;57.71;101692.03;4437211;32;20157;-80
2023/12/18 07:59:49;;;;;;;29.80;20.98;;;;;;;6.72;56.01;101698.06;4436328;32;20148;-80
2023/12/18 08:02:27;;;;;;;24.05;16.58;;;;;;;7.47;53.11;101690.84;4436259;32;20152;-79
2023/12/18 08:04:56;;;;;;;26.08;17.92;;;;;;;8.61;65.90;101694.47;4435043;32;20457;-79
2023/12/18 08:07:27;;;;;;;25.20;20.05;;;;;;;9.88;56.20;101687.34;4435075;32;20555;-79
2023/12/18 08:09:56;;;;;;;25.35;18.77;;;;;;;10.68;44.79;101684.22;4434999;32;20192;-79
2023/12/18 08:12:25;;;;;;;85.57;54.20;;;;;;;11.82;43.27;101675.69;4434652;32;20192;-79
2023/12/18 08:15:02;;;;;;;90.85;56.90;;;;;;;12.72;41.08;101663.41;4434305;32;20171;-77
2023/12/18 08:17:41;;;;;;;45.15;31.60;;;;;;;12.93;38.83;101660.59;4436852;32;20140;-77
2023/12/18 08:20:11;;;;;;;32.08;21.65;;;;;;;13.58;37.72;101659.00;4422467;32;20167;-77
2023/12/18 08:22:47;;;;;;;27.90;20.55;;;;;;;14.49;36.87;101641.47;4422549;32;20152;-77
2023/12/18 08:25:16;;;;;;;24.87;19.30;;;;;;;15.09;35.81;101645.97;4436907;32;20192;-77
2023/12/18 08:27:45;;;;;;;25.62;18.75;;;;;;;15.73;34.97;101642.00;4436578;32;20192;-77
2023/12/18 08:30:15;;;;;;;29.35;20.77;;;;;;;16.34;33.87;101640.72;4436700;32;20164;-77
2023/12/18 08:32:45;;;;;;;25.10;19.67;;;;;;;16.86;33.27;101637.25;4436967;32;20184;-77
2023/12/18 08:35:18;;;;;;;42.92;25.50;;;;;;;17.22;32.44;101633.00;4436419;32;20151;-77
2023/12/18 08:37:48;;;;;;;60.97;32.50;;;;;;;17.55;31.40;101621.75;4436612;32;20155;-77
2023/12/18 08:40:17;;;;;;;69.68;51.05;;;;;;;17.90;31.15;101631.81;4436524;32;20622;-76
2023/12/18 08:42:46;;;;;;;59.05;37.90;;;;;;;18.10;30.79;101641.06;4436487;32;20143;-76
2023/12/18 08:45:16;;;;;;;35.13;25.55;;;;;;;18.40;30.58;101630.72;4436426;32;20145;-77
2023/12/18 08:47:45;;;;;;;28.55;22.80;;;;;;;18.42;30.04;101636.84;4436993;32;20172;-77
2023/12/18 08:50:15;;;;;;;23.45;20.08;;;;;;;18.57;29.70;101625.91;4436062;32;20532;-77
2023/12/18 08:52:44;;;;;;;24.92;18.83;;;;;;;18.72;29.32;101621.25;4436443;32;20159;-77
2023/12/18 08:55:14;;;;;;;26.35;18.58;;;;;;;18.62;29.36;101626.44;4435892;32;20184;-76
2023/12/18 08:57:44;;;;;;;26.58;20.83;;;;;;;18.58;29.46;101624.97;4436174;32;20160;-76
2023/12/18 09:00:14;;;;;;;26.45;21.12;;;;;;;18.48;29.46;101621.25;4436145;32;20167;-77
2023/12/18 09:02:50;;;;;;;26.25;19.52;;;;;;;18.65;29.03;101620.84;4437257;32;20163;-77
2023/12/18 09:05:19;;;;;;;26.58;20.75;;;;;;;18.35;29.79;101634.75;4436017;32;20176;-77
2023/12/18 09:07:49;;;;;;;26.25;20.60;;;;;;;17.79;30.74;101643.28;4436010;32;20164;-77
2023/12/18 09:10:22;;;;;;;27.20;22.52;;;;;;;17.04;31.79;101636.97;4436075;32;20157;-77
2023/12/18 09:12:52;;;;;;;24.05;21.48;;;;;;;16.51;33.15;101639.63;4436130;32;20186;-77
2023/12/18 09:15:23;;;;;;;28.87;21.45;;;;;;;15.24;35.17;101642.34;4435962;32;20160;-76
2023/12/18 09:17:55;;;;;;;27.13;21.75;;;;;;;15.85;34.51;101641.22;4436126;32;20129;-76
2023/12/18 09:20:24;;;;;;;25.17;22.50;;;;;;;15.66;34.58;101635.34;4436612;32;20477;-76
2023/12/18 09:22:54;;;;;;;27.73;22.52;;;;;;;15.54;35.07;101634.25;4436022;32;20156;-76
2023/12/18 09:25:25;;;;;;;25.40;22.75;;;;;;;15.39;35.28;101637.88;4435782;32;20786;-77
2023/12/18 09:27:56;;;;;;;29.60;23.23;;;;;;;15.78;35.14;101636.38;4435600;32;20163;-77
2023/12/18 09:30:26;;;;;;;30.55;24.60;;;;;;;15.92;34.49;101629.19;4435984;32;20156;-77
2023/12/18 09:33:01;;;;;;;27.50;24.42;;;;;;;15.74;35.06;101625.88;4436035;32;20141;-77
2023/12/18 09:35:31;;;;;;;30.83;23.65;;;;;;;16.29;34.14;101621.44;4436279;32;20160;-76
2023/12/18 09:38:00;;;;;;;30.90;24.20;;;;;;;16.21;34.35;101613.94;4436050;32;20455;-77
2023/12/18 09:40:30;;;;;;;30.23;24.58;;;;;;;16.53;34.00;101618.09;4421615;32;20164;-77
2023/12/18 09:43:05;;;;;;;32.13;28.45;;;;;;;16.35;34.27;101612.16;4435890;32;20148;-76
2023/12/18 09:45:35;;;;;;;37.60;27.48;;;;;;;16.14;34.45;101609.06;4435664;32;20159;-76
2023/12/18 09:48:05;;;;;;;32.92;29.40;;;;;;;16.19;34.83;101607.84;4436051;32;20136;-76
2023/12/18 09:50:39;;;;;;;57.15;47.50;;;;;;;16.13;34.91;101602.03;4436104;32;20156;-76
2023/12/18 09:53:12;;;;;;;31.35;26.92;;;;;;;15.92;35.15;101601.59;4435810;32;20168;-76
2023/12/18 09:55:42;;;;;;;40.03;34.53;;;;;;;15.94;34.87;101595.19;4450819;32;20164;-76
2023/12/18 09:58:14;;;;;;;30.08;25.80;;;;;;;16.33;34.29;101595.34;4451245;32;20160;-76
2023/12/18 10:00:44;;;;;;;33.17;27.87;;;;;;;16.29;34.43;101586.66;4451176;32;20160;-76
2023/12/18 10:03:16;;;;;;;31.20;27.85;;;;;;;15.58;35.92;101590.34;4451141;32;20183;-77
2023/12/18 10:05:47;;;;;;;39.22;29.90;;;;;;;15.74;35.35;101587.59;4451111;32;20531;-77
2023/12/18 10:08:16;;;;;;;34.60;28.70;;;;;;;15.42;35.67;101590.47;4451413;32;20159;-76
2023/12/18 10:10:47;;;;;;;41.50;29.17;;;;;;;15.59;35.76;101593.88;4450982;32;20159;-77
2023/12/18 10:13:17;;;;;;;39.15;29.80;;;;;;;15.06;36.78;101596.28;4451245;32;20451;-77
2023/12/18 10:15:46;;;;;;;32.35;27.77;;;;;;;15.07;36.46;101591.78;4451049;32;20139;-77
2023/12/18 10:18:16;;;;;;;32.58;27.55;;;;;;;15.49;35.67;101578.44;4451338;32;20156;-77
2023/12/18 10:20:48;;;;;;;;;;;;;;;15.27;36.25;101572.72;4451426;32;20453;-77
2023/12/18 10:23:18;;;;;;;26.50;23.62;;;;;;;15.84;35.08;101572.69;4451654;32;20486;-76
2023/12/18 10:25:49;;;;;;;31.10;23.62;;;;;;;15.98;34.87;101567.28;4451218;32;20159;-76
2023/12/18 10:28:21;;;;;;;27.98;22.77;;;;;;;16.12;34.69;101562.87;4451272;32;20159;-76
2023/12/18 10:30:53;;;;;;;28.05;22.83;;;;;;;16.25;34.45;101571.78;4451245;32;20179;-76
2023/12/18 10:33:26;;;;;;;35.25;31.33;;;;;;;16.28;34.67;101566.25;4451170;32;20160;-77
2023/12/18 10:35:57;;;;;;;32.35;24.20;;;;;;;16.23;34.89;101568.34;4451291;32;20527;-77
2023/12/18 10:38:32;;;;;;;28.65;22.83;;;;;;;15.99;34.82;101574.34;4450524;32;20171;-77
2023/12/18 10:41:05;;;;;;;29.73;24.63;;;;;;;16.65;33.88;101564.59;4451143;32;20172;-77
2023/12/18 10:43:36;;;;;;;38.10;27.75;;;;;;;16.13;34.32;101561.91;4451097;32;20527;-77
2023/12/18 10:46:06;;;;;;;37.47;23.45;;;;;;;15.93;34.81;101561.41;4450950;32;20148;-77
2023/12/18 10:48:36;;;;;;;30.62;23.73;;;;;;;16.51;33.96;101550.44;4451174;32;20175;-77
2023/12/18 10:51:07;;;;;;;24.55;20.35;;;;;;;16.87;33.73;101556.00;4450966;32;20603;-76
2023/12/18 10:53:37;;;;;;;28.85;19.23;;;;;;;16.89;33.41;101553.19;4451253;32;20152;-76
2023/12/18 10:56:09;;;;;;;27.67;19.87;;;;;;;17.24;32.96;101548.06;4432317;32;142227;-76
2023/12/18 10:58:42;;;;;;;29.30;22.37;;;;;;;17.06;33.19;101546.66;4450964;32;20152;-77
2023/12/18 11:01:15;;;;;;;25.10;21.23;;;;;;;16.78;33.54;101539.69;4450995;32;20164;-77
2023/12/18 11:03:46;;;;;;;29.33;21.05;;;;;;;16.68;33.72;101534.09;4450846;32;20167;-77
2023/12/18 11:06:17;;;;;;;24.80;18.55;;;;;;;16.50;34.54;101533.53;4450910;32;20164;-77
2023/12/18 11:08:49;;;;;;;23.15;18.87;;;;;;;16.84;34.23;101532.09;4450885;32;20415;-77
2023/12/18 11:11:22;;;;;;;23.33;16.55;;;;;;;16.85;34.29;101530.28;4451231;32;20162;-77
2023/12/18 11:14:04;;;;;;;25.20;17.60;;;;;;;16.87;33.96;101529.22;4450522;32;20179;-77
2023/12/18 11:16:42;;;;;;;22.40;16.02;;;;;;;17.15;33.40;101524.59;4436067;32;20128;-77
2023/12/18 11:19:20;;;;;;;20.85;16.12;;;;;;;17.18;33.43;101519.88;4450444;32;20152;-77
2023/12/18 11:21:55;;;;;;;24.50;17.30;;;;;;;17.11;33.40;101515.94;4450449;32;20171;-77
2023/12/18 11:24:25;;;;;;;23.77;17.17;;;;;;;17.10;33.59;101510.66;4450168;32;20432;-76
2023/12/18 11:27:02;;;;;;;25.30;17.67;;;;;;;17.12;33.92;101508.75;4450353;32;20838;-77
2023/12/18 11:29:42;;;;;;;20.12;14.75;;;;;;;17.19;33.63;101510.03;4450579;32;20140;-76
2023/12/18 11:32:13;;;;;;;19.58;15.32;;;;;;;17.18;33.64;101509.19;4450270;32;20171;-76
2023/12/18 11:34:42;;;;;;;21.80;16.30;;;;;;;17.34;33.61;101500.00;4450122;32;20279;-76